sensor_id;sensor_type;location;lat;lon;timestamp;P1;durP1;ratioP1;P2;durP2;ratioP2
49464;SDS011;35358;49.342;8.802;2023-02-04T00:01:05;5.20;;;1.88;;
49464;SDS011;35358;49.342;8.802;2023-02-04T00:03:31;4.53;;;1.63;;
49464;SDS011;35358;49.342;8.802;2023-02-04T00:05:59;4.30;;;1.60;;
49464;SDS011;35358;49.342;8.802;2023-02-04T00:08:27;3.38;;;1.75;;
49464;SDS011;35358;49.342;8.802;2023-02-04T00:10:55;3.90;;;1.25;;
49464;SDS011;35358;49.342;8.802;2023-02-04T00:13:23;3.28;;;1.27;;
49464;SDS011;35358;49.342;8.802;2023-02-04T00:15:51;3.67;;;1.40;;
49464;SDS011;35358;49.342;8.802;2023-02-04T00:18:16;2.55;;;1.40;;
49464;SDS011;35358;49.342;8.802;2023-02-04T00:20:44;3.33;;;1.23;;
49464;SDS011;35358;49.342;8.802;2023-02-04T00:23:09;6.45;;;1.60;;
49464;SDS011;35358;49.342;8.802;2023-02-04T00:25:35;2.72;;;1.50;;
49464;SDS011;35358;49.342;8.802;2023-02-04T00:28:01;2.60;;;1.35;;
49464;SDS011;35358;49.342;8.802;2023-02-04T00:30:30;5.82;;;1.58;;
49464;SDS011;35358;49.342;8.802;2023-02-04T00:32:58;3.72;;;1.25;;
49464;SDS011;35358;49.342;8.802;2023-02-04T00:35:24;3.97;;;1.27;;
49464;SDS011;35358;49.342;8.802;2023-02-04T00:37:52;3.05;;;1.50;;
49464;SDS011;35358;49.342;8.802;2023-02-04T00:40:20;3.05;;;1.60;;
49464;SDS011;35358;49.342;8.802;2023-02-04T00:42:48;4.32;;;1.58;;
49464;SDS011;35358;49.342;8.802;2023-02-04T00:45:16;7.25;;;1.70;;
49464;SDS011;35358;49.342;8.802;2023-02-04T00:47:44;3.45;;;1.45;;
49464;SDS011;35358;49.342;8.802;2023-02-04T00:50:09;3.63;;;1.40;;
49464;SDS011;35358;49.342;8.802;2023-02-04T00:52:35;4.28;;;1.70;;
49464;SDS011;35358;49.342;8.802;2023-02-04T00:55:03;4.88;;;1.45;;
49464;SDS011;35358;49.342;8.802;2023-02-04T00:57:30;5.57;;;1.70;;
49464;SDS011;35358;49.342;8.802;2023-02-04T00:59:59;3.17;;;1.50;;
49464;SDS011;35358;49.342;8.802;2023-02-04T01:02:27;5.60;;;1.65;;
49464;SDS011;35358;49.342;8.802;2023-02-04T01:04:52;8.07;;;1.95;;
49464;SDS011;35358;49.342;8.802;2023-02-04T01:07:18;6.30;;;1.50;;
49464;SDS011;35358;49.342;8.802;2023-02-04T01:09:43;3.60;;;1.50;;
49464;SDS011;35358;49.342;8.802;2023-02-04T01:12:09;4.63;;;1.75;;
49464;SDS011;35358;49.342;8.802;2023-02-04T01:14:34;4.10;;;1.77;;
49464;SDS011;35358;49.342;8.802;2023-02-04T01:17:02;3.17;;;1.23;;
49464;SDS011;35358;49.342;8.802;2023-02-04T01:19:28;2.47;;;1.48;;
49464;SDS011;35358;49.342;8.802;2023-02-04T01:21:53;3.75;;;1.20;;
49464;SDS011;35358;49.342;8.802;2023-02-04T01:24:21;4.15;;;1.30;;
49464;SDS011;35358;49.342;8.802;2023-02-04T01:26:47;4.25;;;1.25;;
49464;SDS011;35358;49.342;8.802;2023-02-04T01:29:15;7.63;;;1.60;;
49464;SDS011;35358;49.342;8.802;2023-02-04T01:31:40;8.57;;;1.63;;
49464;SDS011;35358;49.342;8.802;2023-02-04T01:34:06;6.05;;;1.40;;
49464;SDS011;35358;49.342;8.802;2023-02-04T01:36:32;11.25;;;1.95;;
49464;SDS011;35358;49.342;8.802;2023-02-04T01:38:59;5.32;;;1.80;;
49464;SDS011;35358;49.342;8.802;2023-02-04T01:41:28;7.07;;;1.50;;
49464;SDS011;35358;49.342;8.802;2023-02-04T01:43:56;6.95;;;2.03;;
49464;SDS011;35358;49.342;8.802;2023-02-04T01:46:22;7.72;;;2.00;;
49464;SDS011;35358;49.342;8.802;2023-02-04T01:48:53;7.43;;;1.88;;
49464;SDS011;35358;49.342;8.802;2023-02-04T01:51:21;9.73;;;1.98;;
49464;SDS011;35358;49.342;8.802;2023-02-04T01:53:53;8.68;;;2.20;;
49464;SDS011;35358;49.342;8.802;2023-02-04T01:56:22;8.15;;;1.67;;
49464;SDS011;35358;49.342;8.802;2023-02-04T02:01:37;11.15;;;2.55;;
49464;SDS011;35358;49.342;8.802;2023-02-04T02:04:06;5.47;;;1.88;;
49464;SDS011;35358;49.342;8.802;2023-02-04T02:06:35;10.60;;;2.03;;
49464;SDS011;35358;49.342;8.802;2023-02-04T02:09:02;13.55;;;2.97;;
49464;SDS011;35358;49.342;8.802;2023-02-04T02:11:28;6.82;;;2.20;;
49464;SDS011;35358;49.342;8.802;2023-02-04T02:13:55;13.35;;;2.65;;
49464;SDS011;35358;49.342;8.802;2023-02-04T02:16:21;14.07;;;2.95;;
49464;SDS011;35358;49.342;8.802;2023-02-04T02:18:49;12.77;;;2.53;;
49464;SDS011;35358;49.342;8.802;2023-02-04T02:21:19;10.13;;;2.30;;
49464;SDS011;35358;49.342;8.802;2023-02-04T02:23:54;11.73;;;2.35;;
49464;SDS011;35358;49.342;8.802;2023-02-04T02:26:25;21.02;;;2.72;;
49464;SDS011;35358;49.342;8.802;2023-02-04T02:28:53;9.30;;;2.40;;
49464;SDS011;35358;49.342;8.802;2023-02-04T02:31:20;15.80;;;2.70;;
49464;SDS011;35358;49.342;8.802;2023-02-04T02:33:51;9.15;;;2.25;;
49464;SDS011;35358;49.342;8.802;2023-02-04T02:36:16;10.30;;;2.30;;
49464;SDS011;35358;49.342;8.802;2023-02-04T02:38:46;12.18;;;2.22;;
49464;SDS011;35358;49.342;8.802;2023-02-04T02:41:14;10.73;;;2.08;;
49464;SDS011;35358;49.342;8.802;2023-02-04T02:43:40;8.40;;;1.88;;
49464;SDS011;35358;49.342;8.802;2023-02-04T02:46:08;13.68;;;2.88;;
49464;SDS011;35358;49.342;8.802;2023-02-04T02:48:34;9.30;;;1.95;;
49464;SDS011;35358;49.342;8.802;2023-02-04T02:50:59;8.70;;;2.08;;
49464;SDS011;35358;49.342;8.802;2023-02-04T02:53:27;15.63;;;3.00;;
49464;SDS011;35358;49.342;8.802;2023-02-04T02:55:53;9.05;;;2.47;;
49464;SDS011;35358;49.342;8.802;2023-02-04T02:58:30;10.75;;;2.75;;
49464;SDS011;35358;49.342;8.802;2023-02-04T03:01:05;11.13;;;2.28;;
49464;SDS011;35358;49.342;8.802;2023-02-04T03:03:33;10.38;;;2.22;;
49464;SDS011;35358;49.342;8.802;2023-02-04T03:06:04;15.32;;;3.42;;
49464;SDS011;35358;49.342;8.802;2023-02-04T03:08:35;13.50;;;2.88;;
49464;SDS011;35358;49.342;8.802;2023-02-04T03:11:01;10.35;;;2.67;;
49464;SDS011;35358;49.342;8.802;2023-02-04T03:13:27;18.08;;;2.80;;
49464;SDS011;35358;49.342;8.802;2023-02-04T03:15:53;11.43;;;2.90;;
49464;SDS011;35358;49.342;8.802;2023-02-04T03:18:21;15.90;;;3.58;;
49464;SDS011;35358;49.342;8.802;2023-02-04T03:20:47;12.43;;;2.90;;
49464;SDS011;35358;49.342;8.802;2023-02-04T03:23:15;15.30;;;3.55;;
49464;SDS011;35358;49.342;8.802;2023-02-04T03:25:43;12.32;;;2.65;;
49464;SDS011;35358;49.342;8.802;2023-02-04T03:28:09;15.48;;;4.20;;
49464;SDS011;35358;49.342;8.802;2023-02-04T03:30:34;10.55;;;2.42;;
49464;SDS011;35358;49.342;8.802;2023-02-04T03:33:00;16.42;;;4.60;;
49464;SDS011;35358;49.342;8.802;2023-02-04T03:35:26;12.15;;;3.42;;
49464;SDS011;35358;49.342;8.802;2023-02-04T03:37:54;9.43;;;2.33;;
49464;SDS011;35358;49.342;8.802;2023-02-04T03:40:20;11.25;;;2.80;;
49464;SDS011;35358;49.342;8.802;2023-02-04T03:42:48;21.20;;;4.43;;
49464;SDS011;35358;49.342;8.802;2023-02-04T03:45:16;12.70;;;3.00;;
49464;SDS011;35358;49.342;8.802;2023-02-04T03:47:43;9.50;;;2.72;;
49464;SDS011;35358;49.342;8.802;2023-02-04T03:50:09;10.75;;;2.65;;
49464;SDS011;35358;49.342;8.802;2023-02-04T03:52:37;11.05;;;2.40;;
49464;SDS011;35358;49.342;8.802;2023-02-04T03:55:02;10.77;;;1.98;;
49464;SDS011;35358;49.342;8.802;2023-02-04T03:57:28;8.27;;;1.90;;
49464;SDS011;35358;49.342;8.802;2023-02-04T03:59:56;9.98;;;1.98;;
49464;SDS011;35358;49.342;8.802;2023-02-04T04:02:27;8.52;;;1.77;;
49464;SDS011;35358;49.342;8.802;2023-02-04T04:04:52;12.32;;;1.95;;
49464;SDS011;35358;49.342;8.802;2023-02-04T04:07:18;11.45;;;2.25;;
49464;SDS011;35358;49.342;8.802;2023-02-04T04:09:43;9.27;;;2.58;;
49464;SDS011;35358;49.342;8.802;2023-02-04T04:12:09;10.93;;;2.30;;
49464;SDS011;35358;49.342;8.802;2023-02-04T04:14:34;9.23;;;1.77;;
49464;SDS011;35358;49.342;8.802;2023-02-04T04:17:00;15.93;;;2.30;;
49464;SDS011;35358;49.342;8.802;2023-02-04T04:19:28;9.82;;;2.63;;
49464;SDS011;35358;49.342;8.802;2023-02-04T04:21:56;13.50;;;3.88;;
49464;SDS011;35358;49.342;8.802;2023-02-04T04:24:21;7.32;;;2.72;;
49464;SDS011;35358;49.342;8.802;2023-02-04T04:26:49;16.55;;;2.83;;
49464;SDS011;35358;49.342;8.802;2023-02-04T04:29:17;9.60;;;2.80;;
49464;SDS011;35358;49.342;8.802;2023-02-04T04:31:42;13.07;;;3.45;;
49464;SDS011;35358;49.342;8.802;2023-02-04T04:34:09;10.70;;;2.28;;
49464;SDS011;35358;49.342;8.802;2023-02-04T04:36:34;8.00;;;2.00;;
49464;SDS011;35358;49.342;8.802;2023-02-04T04:39:00;11.35;;;2.83;;
49464;SDS011;35358;49.342;8.802;2023-02-04T04:41:25;11.82;;;4.18;;
49464;SDS011;35358;49.342;8.802;2023-02-04T04:43:51;15.98;;;3.28;;
49464;SDS011;35358;49.342;8.802;2023-02-04T04:46:17;10.70;;;3.22;;
49464;SDS011;35358;49.342;8.802;2023-02-04T04:48:42;9.75;;;3.40;;
49464;SDS011;35358;49.342;8.802;2023-02-04T04:51:08;14.05;;;2.90;;
49464;SDS011;35358;49.342;8.802;2023-02-04T04:53:33;10.18;;;3.58;;
49464;SDS011;35358;49.342;8.802;2023-02-04T04:55:59;17.08;;;3.30;;
49464;SDS011;35358;49.342;8.802;2023-02-04T04:58:25;15.27;;;3.60;;
49464;SDS011;35358;49.342;8.802;2023-02-04T05:00:50;17.30;;;3.20;;
49464;SDS011;35358;49.342;8.802;2023-02-04T05:03:16;16.40;;;2.90;;
49464;SDS011;35358;49.342;8.802;2023-02-04T05:05:41;11.32;;;3.28;;
49464;SDS011;35358;49.342;8.802;2023-02-04T05:08:09;12.20;;;2.65;;
49464;SDS011;35358;49.342;8.802;2023-02-04T05:10:41;12.32;;;3.75;;
49464;SDS011;35358;49.342;8.802;2023-02-04T05:13:08;17.33;;;3.80;;
49464;SDS011;35358;49.342;8.802;2023-02-04T05:15:34;12.48;;;2.28;;
49464;SDS011;35358;49.342;8.802;2023-02-04T05:18:00;11.63;;;2.70;;
49464;SDS011;35358;49.342;8.802;2023-02-04T05:20:28;15.50;;;2.80;;
49464;SDS011;35358;49.342;8.802;2023-02-04T05:22:54;10.50;;;3.13;;
49464;SDS011;35358;49.342;8.802;2023-02-04T05:25:20;20.13;;;3.05;;
49464;SDS011;35358;49.342;8.802;2023-02-04T05:27:46;16.30;;;3.17;;
49464;SDS011;35358;49.342;8.802;2023-02-04T05:30:14;16.75;;;3.17;;
49464;SDS011;35358;49.342;8.802;2023-02-04T05:32:40;14.68;;;2.67;;
49464;SDS011;35358;49.342;8.802;2023-02-04T05:35:08;11.15;;;2.47;;
49464;SDS011;35358;49.342;8.802;2023-02-04T05:37:34;10.82;;;2.92;;
49464;SDS011;35358;49.342;8.802;2023-02-04T05:39:59;12.65;;;2.95;;
49464;SDS011;35358;49.342;8.802;2023-02-04T05:42:30;14.73;;;3.10;;
49464;SDS011;35358;49.342;8.802;2023-02-04T05:44:58;14.45;;;3.20;;
49464;SDS011;35358;49.342;8.802;2023-02-04T05:47:23;14.35;;;2.92;;
49464;SDS011;35358;49.342;8.802;2023-02-04T05:49:52;12.10;;;2.50;;
49464;SDS011;35358;49.342;8.802;2023-02-04T05:52:19;14.90;;;2.65;;
49464;SDS011;35358;49.342;8.802;2023-02-04T05:54:45;9.05;;;2.40;;
49464;SDS011;35358;49.342;8.802;2023-02-04T05:57:13;14.73;;;3.13;;
49464;SDS011;35358;49.342;8.802;2023-02-04T05:59:43;13.30;;;2.90;;
49464;SDS011;35358;49.342;8.802;2023-02-04T06:02:11;13.93;;;2.78;;
49464;SDS011;35358;49.342;8.802;2023-02-04T06:04:39;14.65;;;3.13;;
49464;SDS011;35358;49.342;8.802;2023-02-04T06:07:05;17.85;;;3.35;;
49464;SDS011;35358;49.342;8.802;2023-02-04T06:09:30;12.90;;;2.80;;
49464;SDS011;35358;49.342;8.802;2023-02-04T06:11:57;14.13;;;3.58;;
49464;SDS011;35358;49.342;8.802;2023-02-04T06:14:22;17.05;;;3.30;;
49464;SDS011;35358;49.342;8.802;2023-02-04T06:16:48;11.30;;;2.75;;
49464;SDS011;35358;49.342;8.802;2023-02-04T06:19:13;11.70;;;3.00;;
49464;SDS011;35358;49.342;8.802;2023-02-04T06:21:41;15.63;;;2.90;;
49464;SDS011;35358;49.342;8.802;2023-02-04T06:24:07;10.60;;;2.83;;
49464;SDS011;35358;49.342;8.802;2023-02-04T06:26:32;13.05;;;3.38;;
49464;SDS011;35358;49.342;8.802;2023-02-04T06:29:00;14.75;;;2.38;;
49464;SDS011;35358;49.342;8.802;2023-02-04T06:31:26;11.73;;;2.47;;
49464;SDS011;35358;49.342;8.802;2023-02-04T06:33:54;10.60;;;2.75;;
49464;SDS011;35358;49.342;8.802;2023-02-04T06:36:19;12.13;;;3.30;;
49464;SDS011;35358;49.342;8.802;2023-02-04T06:38:47;18.85;;;4.57;;
49464;SDS011;35358;49.342;8.802;2023-02-04T06:41:13;18.55;;;5.03;;
49464;SDS011;35358;49.342;8.802;2023-02-04T06:43:41;15.25;;;4.40;;
49464;SDS011;35358;49.342;8.802;2023-02-04T06:46:09;19.58;;;5.47;;
49464;SDS011;35358;49.342;8.802;2023-02-04T06:48:34;17.48;;;6.32;;
49464;SDS011;35358;49.342;8.802;2023-02-04T06:51:02;20.63;;;6.20;;
49464;SDS011;35358;49.342;8.802;2023-02-04T06:53:30;16.52;;;5.95;;
49464;SDS011;35358;49.342;8.802;2023-02-04T06:55:58;18.30;;;4.90;;
49464;SDS011;35358;49.342;8.802;2023-02-04T06:58:28;12.50;;;4.10;;
49464;SDS011;35358;49.342;8.802;2023-02-04T07:00:58;17.50;;;4.57;;
49464;SDS011;35358;49.342;8.802;2023-02-04T07:03:26;19.55;;;4.95;;
49464;SDS011;35358;49.342;8.802;2023-02-04T07:05:52;14.65;;;4.13;;
49464;SDS011;35358;49.342;8.802;2023-02-04T07:08:18;14.80;;;4.80;;
49464;SDS011;35358;49.342;8.802;2023-02-04T07:10:48;14.90;;;4.63;;
49464;SDS011;35358;49.342;8.802;2023-02-04T07:13:16;14.52;;;4.95;;
49464;SDS011;35358;49.342;8.802;2023-02-04T07:15:41;15.00;;;4.35;;
49464;SDS011;35358;49.342;8.802;2023-02-04T07:18:07;13.30;;;4.13;;
49464;SDS011;35358;49.342;8.802;2023-02-04T07:20:35;15.93;;;3.90;;
49464;SDS011;35358;49.342;8.802;2023-02-04T07:23:03;16.45;;;3.83;;
49464;SDS011;35358;49.342;8.802;2023-02-04T07:25:30;14.32;;;4.30;;
49464;SDS011;35358;49.342;8.802;2023-02-04T07:27:58;15.43;;;3.67;;
49464;SDS011;35358;49.342;8.802;2023-02-04T07:30:29;15.02;;;3.30;;
49464;SDS011;35358;49.342;8.802;2023-02-04T07:32:56;16.80;;;5.20;;
49464;SDS011;35358;49.342;8.802;2023-02-04T07:35:22;20.30;;;5.43;;
49464;SDS011;35358;49.342;8.802;2023-02-04T07:37:50;19.35;;;5.40;;
49464;SDS011;35358;49.342;8.802;2023-02-04T07:40:16;23.92;;;7.78;;
49464;SDS011;35358;49.342;8.802;2023-02-04T07:42:41;17.05;;;4.85;;
49464;SDS011;35358;49.342;8.802;2023-02-04T07:45:07;19.88;;;5.13;;
49464;SDS011;35358;49.342;8.802;2023-02-04T07:47:33;17.42;;;6.70;;
49464;SDS011;35358;49.342;8.802;2023-02-04T07:49:58;18.58;;;7.15;;
49464;SDS011;35358;49.342;8.802;2023-02-04T07:52:24;16.92;;;5.57;;
49464;SDS011;35358;49.342;8.802;2023-02-04T07:54:50;16.83;;;6.60;;
49464;SDS011;35358;49.342;8.802;2023-02-04T07:57:18;16.30;;;5.82;;
49464;SDS011;35358;49.342;8.802;2023-02-04T07:59:46;23.75;;;6.80;;
49464;SDS011;35358;49.342;8.802;2023-02-04T08:02:12;28.20;;;7.30;;
49464;SDS011;35358;49.342;8.802;2023-02-04T08:04:37;25.10;;;5.93;;
49464;SDS011;35358;49.342;8.802;2023-02-04T08:07:03;25.85;;;4.57;;
49464;SDS011;35358;49.342;8.802;2023-02-04T08:09:29;17.65;;;3.25;;
49464;SDS011;35358;49.342;8.802;2023-02-04T08:11:54;22.90;;;3.80;;
49464;SDS011;35358;49.342;8.802;2023-02-04T08:14:20;15.38;;;3.00;;
49464;SDS011;35358;49.342;8.802;2023-02-04T08:16:45;20.88;;;4.03;;
49464;SDS011;35358;49.342;8.802;2023-02-04T08:19:13;12.85;;;3.15;;
49464;SDS011;35358;49.342;8.802;2023-02-04T08:21:43;14.23;;;3.53;;
49464;SDS011;35358;49.342;8.802;2023-02-04T08:24:12;14.97;;;3.57;;
49464;SDS011;35358;49.342;8.802;2023-02-04T08:26:41;11.27;;;2.95;;
49464;SDS011;35358;49.342;8.802;2023-02-04T08:29:07;16.42;;;3.70;;
49464;SDS011;35358;49.342;8.802;2023-02-04T08:31:34;16.75;;;3.53;;
49464;SDS011;35358;49.342;8.802;2023-02-04T08:34:01;18.75;;;3.22;;
49464;SDS011;35358;49.342;8.802;2023-02-04T08:36:30;16.40;;;3.30;;
49464;SDS011;35358;49.342;8.802;2023-02-04T08:38:58;16.70;;;2.72;;
49464;SDS011;35358;49.342;8.802;2023-02-04T08:41:26;11.18;;;2.70;;
49464;SDS011;35358;49.342;8.802;2023-02-04T08:43:54;14.20;;;2.72;;
49464;SDS011;35358;49.342;8.802;2023-02-04T08:46:23;11.93;;;3.05;;
49464;SDS011;35358;49.342;8.802;2023-02-04T08:48:51;14.65;;;3.67;;
49464;SDS011;35358;49.342;8.802;2023-02-04T08:51:16;17.15;;;3.50;;
49464;SDS011;35358;49.342;8.802;2023-02-04T08:53:42;14.95;;;3.65;;
49464;SDS011;35358;49.342;8.802;2023-02-04T08:56:08;15.18;;;3.15;;
49464;SDS011;35358;49.342;8.802;2023-02-04T08:58:34;17.88;;;4.13;;
49464;SDS011;35358;49.342;8.802;2023-02-04T09:01:03;17.95;;;3.38;;
49464;SDS011;35358;49.342;8.802;2023-02-04T09:03:31;17.88;;;3.50;;
49464;SDS011;35358;49.342;8.802;2023-02-04T09:05:58;18.80;;;3.75;;
49464;SDS011;35358;49.342;8.802;2023-02-04T09:08:24;14.23;;;3.22;;
49464;SDS011;35358;49.342;8.802;2023-02-04T09:10:50;17.02;;;3.08;;
49464;SDS011;35358;49.342;8.802;2023-02-04T09:13:15;17.10;;;3.17;;
49464;SDS011;35358;49.342;8.802;2023-02-04T09:15:41;18.75;;;3.47;;
49464;SDS011;35358;49.342;8.802;2023-02-04T09:18:06;13.57;;;2.65;;
49464;SDS011;35358;49.342;8.802;2023-02-04T09:20:40;16.77;;;3.60;;
49464;SDS011;35358;49.342;8.802;2023-02-04T09:23:06;17.55;;;3.85;;
49464;SDS011;35358;49.342;8.802;2023-02-04T09:25:33;18.33;;;3.33;;
49464;SDS011;35358;49.342;8.802;2023-02-04T09:27:59;11.50;;;3.15;;
49464;SDS011;35358;49.342;8.802;2023-02-04T09:30:27;13.15;;;3.28;;
49464;SDS011;35358;49.342;8.802;2023-02-04T09:32:55;14.38;;;2.70;;
49464;SDS011;35358;49.342;8.802;2023-02-04T09:35:23;14.23;;;3.67;;
49464;SDS011;35358;49.342;8.802;2023-02-04T09:37:50;14.93;;;3.70;;
49464;SDS011;35358;49.342;8.802;2023-02-04T09:40:16;22.40;;;4.20;;
49464;SDS011;35358;49.342;8.802;2023-02-04T09:42:48;15.45;;;3.80;;
49464;SDS011;35358;49.342;8.802;2023-02-04T09:45:19;22.75;;;3.88;;
49464;SDS011;35358;49.342;8.802;2023-02-04T09:47:50;16.60;;;4.13;;
49464;SDS011;35358;49.342;8.802;2023-02-04T09:50:19;17.40;;;3.30;;
49464;SDS011;35358;49.342;8.802;2023-02-04T09:52:53;14.43;;;3.05;;
49464;SDS011;35358;49.342;8.802;2023-02-04T09:55:21;17.08;;;3.75;;
49464;SDS011;35358;49.342;8.802;2023-02-04T09:57:54;17.88;;;3.17;;
49464;SDS011;35358;49.342;8.802;2023-02-04T10:00:21;19.10;;;3.47;;
49464;SDS011;35358;49.342;8.802;2023-02-04T10:02:51;15.15;;;2.90;;
49464;SDS011;35358;49.342;8.802;2023-02-04T10:05:18;17.23;;;3.30;;
49464;SDS011;35358;49.342;8.802;2023-02-04T10:07:52;11.95;;;2.75;;
49464;SDS011;35358;49.342;8.802;2023-02-04T10:10:21;24.52;;;3.60;;
49464;SDS011;35358;49.342;8.802;2023-02-04T10:12:50;16.05;;;3.55;;
49464;SDS011;35358;49.342;8.802;2023-02-04T10:15:18;14.55;;;2.35;;
49464;SDS011;35358;49.342;8.802;2023-02-04T10:20:17;12.65;;;2.20;;
49464;SDS011;35358;49.342;8.802;2023-02-04T10:22:48;14.35;;;2.42;;
49464;SDS011;35358;49.342;8.802;2023-02-04T10:25:17;13.10;;;2.08;;
49464;SDS011;35358;49.342;8.802;2023-02-04T10:27:50;14.10;;;2.72;;
49464;SDS011;35358;49.342;8.802;2023-02-04T10:30:19;13.15;;;3.05;;
49464;SDS011;35358;49.342;8.802;2023-02-04T10:32:48;10.77;;;2.38;;
49464;SDS011;35358;49.342;8.802;2023-02-04T10:35:18;18.58;;;3.05;;
49464;SDS011;35358;49.342;8.802;2023-02-04T10:38:00;13.73;;;2.50;;
49464;SDS011;35358;49.342;8.802;2023-02-04T10:40:32;13.98;;;2.67;;
49464;SDS011;35358;49.342;8.802;2023-02-04T10:43:12;9.48;;;1.92;;
49464;SDS011;35358;49.342;8.802;2023-02-04T10:45:44;10.90;;;1.83;;
49464;SDS011;35358;49.342;8.802;2023-02-04T10:48:14;13.38;;;2.55;;
49464;SDS011;35358;49.342;8.802;2023-02-04T10:50:41;8.98;;;2.33;;
49464;SDS011;35358;49.342;8.802;2023-02-04T10:53:07;15.65;;;3.40;;
49464;SDS011;35358;49.342;8.802;2023-02-04T10:55:53;15.32;;;2.45;;
49464;SDS011;35358;49.342;8.802;2023-02-04T10:58:23;9.77;;;1.95;;
49464;SDS011;35358;49.342;8.802;2023-02-04T11:00:56;12.98;;;2.58;;
49464;SDS011;35358;49.342;8.802;2023-02-04T11:03:25;10.70;;;2.90;;
49464;SDS011;35358;49.342;8.802;2023-02-04T11:05:55;13.95;;;2.50;;
49464;SDS011;35358;49.342;8.802;2023-02-04T11:08:23;15.60;;;2.50;;
49464;SDS011;35358;49.342;8.802;2023-02-04T11:11:04;14.20;;;2.67;;
49464;SDS011;35358;49.342;8.802;2023-02-04T11:13:43;18.27;;;3.42;;
49464;SDS011;35358;49.342;8.802;2023-02-04T11:16:23;10.43;;;2.35;;
49464;SDS011;35358;49.342;8.802;2023-02-04T11:18:55;14.95;;;2.75;;
49464;SDS011;35358;49.342;8.802;2023-02-04T11:23:50;10.82;;;2.13;;
49464;SDS011;35358;49.342;8.802;2023-02-04T11:30:03;13.40;;;2.33;;
49464;SDS011;35358;49.342;8.802;2023-02-04T11:32:34;14.15;;;2.75;;
49464;SDS011;35358;49.342;8.802;2023-02-04T11:35:21;14.55;;;2.38;;
49464;SDS011;35358;49.342;8.802;2023-02-04T11:37:48;8.13;;;1.92;;
49464;SDS011;35358;49.342;8.802;2023-02-04T11:40:33;15.50;;;2.17;;
49464;SDS011;35358;49.342;8.802;2023-02-04T11:43:01;13.15;;;2.42;;
49464;SDS011;35358;49.342;8.802;2023-02-04T11:45:35;12.55;;;2.30;;
49464;SDS011;35358;49.342;8.802;2023-02-04T11:48:09;13.45;;;2.50;;
49464;SDS011;35358;49.342;8.802;2023-02-04T11:50:42;8.07;;;1.85;;
49464;SDS011;35358;49.342;8.802;2023-02-04T11:53:18;8.82;;;2.08;;
49464;SDS011;35358;49.342;8.802;2023-02-04T11:55:47;18.05;;;2.45;;
49464;SDS011;35358;49.342;8.802;2023-02-04T11:58:16;8.38;;;2.03;;
49464;SDS011;35358;49.342;8.802;2023-02-04T12:00:44;12.32;;;2.55;;
49464;SDS011;35358;49.342;8.802;2023-02-04T12:03:21;11.10;;;2.25;;
49464;SDS011;35358;49.342;8.802;2023-02-04T12:05:51;11.95;;;2.42;;
49464;SDS011;35358;49.342;8.802;2023-02-04T12:13:18;8.25;;;2.25;;
49464;SDS011;35358;49.342;8.802;2023-02-04T12:15:53;14.70;;;2.63;;
49464;SDS011;35358;49.342;8.802;2023-02-04T12:18:23;6.97;;;1.88;;
49464;SDS011;35358;49.342;8.802;2023-02-04T12:20:48;11.68;;;2.40;;
49464;SDS011;35358;49.342;8.802;2023-02-04T12:23:19;13.75;;;3.63;;
49464;SDS011;35358;49.342;8.802;2023-02-04T12:25:44;10.90;;;2.08;;
49464;SDS011;35358;49.342;8.802;2023-02-04T12:28:12;6.53;;;2.00;;
49464;SDS011;35358;49.342;8.802;2023-02-04T12:30:38;10.63;;;2.15;;
49464;SDS011;35358;49.342;8.802;2023-02-04T12:33:04;9.45;;;2.13;;
49464;SDS011;35358;49.342;8.802;2023-02-04T12:35:32;8.65;;;1.77;;
49464;SDS011;35358;49.342;8.802;2023-02-04T12:37:58;9.95;;;1.85;;
49464;SDS011;35358;49.342;8.802;2023-02-04T12:40:24;8.35;;;1.67;;
49464;SDS011;35358;49.342;8.802;2023-02-04T12:42:49;10.32;;;2.58;;
49464;SDS011;35358;49.342;8.802;2023-02-04T12:45:15;12.55;;;2.15;;
49464;SDS011;35358;49.342;8.802;2023-02-04T12:47:42;10.25;;;1.80;;
49464;SDS011;35358;49.342;8.802;2023-02-04T12:50:11;11.57;;;1.98;;
49464;SDS011;35358;49.342;8.802;2023-02-04T12:52:38;8.70;;;2.28;;
49464;SDS011;35358;49.342;8.802;2023-02-04T12:55:06;12.35;;;3.55;;
49464;SDS011;35358;49.342;8.802;2023-02-04T12:57:32;11.07;;;2.67;;
49464;SDS011;35358;49.342;8.802;2023-02-04T12:59:58;11.25;;;2.97;;
49464;SDS011;35358;49.342;8.802;2023-02-04T13:02:26;11.02;;;2.92;;
49464;SDS011;35358;49.342;8.802;2023-02-04T13:04:54;8.90;;;2.17;;
49464;SDS011;35358;49.342;8.802;2023-02-04T13:07:22;9.00;;;2.08;;
49464;SDS011;35358;49.342;8.802;2023-02-04T13:09:48;9.55;;;1.83;;
49464;SDS011;35358;49.342;8.802;2023-02-04T13:12:14;5.90;;;1.33;;
49464;SDS011;35358;49.342;8.802;2023-02-04T13:14:45;7.55;;;1.50;;
49464;SDS011;35358;49.342;8.802;2023-02-04T13:17:13;11.95;;;2.30;;
49464;SDS011;35358;49.342;8.802;2023-02-04T13:19:41;8.30;;;2.08;;
49464;SDS011;35358;49.342;8.802;2023-02-04T13:22:08;7.10;;;2.17;;
49464;SDS011;35358;49.342;8.802;2023-02-04T13:24:34;9.07;;;1.67;;
49464;SDS011;35358;49.342;8.802;2023-02-04T13:27:00;8.65;;;1.60;;
49464;SDS011;35358;49.342;8.802;2023-02-04T13:29:25;5.97;;;1.67;;
49464;SDS011;35358;49.342;8.802;2023-02-04T13:31:51;7.75;;;1.45;;
49464;SDS011;35358;49.342;8.802;2023-02-04T13:34:19;8.48;;;1.35;;
49464;SDS011;35358;49.342;8.802;2023-02-04T13:36:47;14.60;;;1.90;;
49464;SDS011;35358;49.342;8.802;2023-02-04T13:39:13;9.57;;;1.58;;
49464;SDS011;35358;49.342;8.802;2023-02-04T13:41:43;10.15;;;1.70;;
49464;SDS011;35358;49.342;8.802;2023-02-04T13:44:10;7.78;;;1.60;;
49464;SDS011;35358;49.342;8.802;2023-02-04T13:46:35;7.75;;;1.60;;
49464;SDS011;35358;49.342;8.802;2023-02-04T13:49:03;5.75;;;1.38;;
49464;SDS011;35358;49.342;8.802;2023-02-04T13:51:29;9.80;;;1.67;;
49464;SDS011;35358;49.342;8.802;2023-02-04T13:53:54;7.07;;;2.08;;
49464;SDS011;35358;49.342;8.802;2023-02-04T13:56:24;6.80;;;1.55;;
49464;SDS011;35358;49.342;8.802;2023-02-04T13:58:56;11.65;;;1.88;;
49464;SDS011;35358;49.342;8.802;2023-02-04T14:01:25;9.48;;;2.00;;
49464;SDS011;35358;49.342;8.802;2023-02-04T14:03:53;8.77;;;2.13;;
49464;SDS011;35358;49.342;8.802;2023-02-04T14:06:18;8.77;;;2.15;;
49464;SDS011;35358;49.342;8.802;2023-02-04T14:08:47;12.70;;;2.30;;
49464;SDS011;35358;49.342;8.802;2023-02-04T14:11:13;5.30;;;1.50;;
49464;SDS011;35358;49.342;8.802;2023-02-04T14:13:38;7.95;;;1.70;;
49464;SDS011;35358;49.342;8.802;2023-02-04T14:16:06;7.45;;;1.48;;
49464;SDS011;35358;49.342;8.802;2023-02-04T14:18:33;12.82;;;2.15;;
49464;SDS011;35358;49.342;8.802;2023-02-04T14:20:59;9.40;;;1.70;;
49464;SDS011;35358;49.342;8.802;2023-02-04T14:23:24;16.67;;;2.10;;
49464;SDS011;35358;49.342;8.802;2023-02-04T14:25:50;7.82;;;1.80;;
49464;SDS011;35358;49.342;8.802;2023-02-04T14:28:18;10.70;;;2.08;;
49464;SDS011;35358;49.342;8.802;2023-02-04T14:30:43;13.32;;;1.95;;
49464;SDS011;35358;49.342;8.802;2023-02-04T14:33:11;8.60;;;1.40;;
49464;SDS011;35358;49.342;8.802;2023-02-04T14:35:39;6.45;;;2.08;;
49464;SDS011;35358;49.342;8.802;2023-02-04T14:38:07;8.20;;;1.67;;
49464;SDS011;35358;49.342;8.802;2023-02-04T14:40:37;7.97;;;1.38;;
49464;SDS011;35358;49.342;8.802;2023-02-04T14:43:03;7.50;;;1.88;;
49464;SDS011;35358;49.342;8.802;2023-02-04T14:45:31;10.68;;;2.15;;
49464;SDS011;35358;49.342;8.802;2023-02-04T14:47:59;8.05;;;1.70;;
49464;SDS011;35358;49.342;8.802;2023-02-04T14:50:25;5.57;;;1.45;;
49464;SDS011;35358;49.342;8.802;2023-02-04T14:52:52;7.32;;;1.73;;
49464;SDS011;35358;49.342;8.802;2023-02-04T14:55:21;9.18;;;1.60;;
49464;SDS011;35358;49.342;8.802;2023-02-04T14:57:48;5.82;;;1.30;;